createdAt,value
2022-08-30T00:01:09.189Z,17.10
2022-08-30T00:02:36.370Z,17.20
2022-08-30T00:03:59.853Z,17.20
2022-08-30T00:05:22.223Z,17.20
2022-08-30T00:06:44.357Z,17.20
2022-08-30T00:08:06.581Z,17.20
2022-08-30T00:09:28.653Z,17.20
2022-08-30T00:10:53.353Z,17.20
2022-08-30T00:12:15.613Z,17.30
2022-08-30T00:13:39.432Z,17.30
2022-08-30T00:15:01.561Z,17.30
2022-08-30T00:16:24.186Z,17.30
2022-08-30T00:17:46.409Z,17.30
2022-08-30T00:19:08.517Z,17.40
2022-08-30T00:20:32.585Z,17.40
2022-08-30T00:21:54.702Z,17.40
2022-08-30T00:23:18.823Z,17.40
2022-08-30T00:24:40.896Z,17.40
2022-08-30T00:26:03.279Z,17.40
2022-08-30T00:27:25.372Z,17.40
2022-08-30T00:28:47.461Z,17.40
2022-08-30T00:30:11.512Z,17.40
2022-08-30T00:31:33.593Z,17.40
2022-08-30T00:32:55.803Z,17.40
2022-08-30T00:34:17.986Z,17.40
2022-08-30T00:35:40.485Z,17.40
2022-08-30T00:37:02.782Z,17.40
2022-08-30T00:38:24.998Z,17.40
2022-08-30T00:39:47.473Z,17.40
2022-08-30T00:41:09.607Z,17.40
2022-08-30T00:42:33.002Z,17.40
2022-08-30T00:43:55.162Z,17.40
2022-08-30T00:45:27.504Z,17.40
2022-08-30T00:46:49.583Z,17.40
2022-08-30T00:48:11.962Z,17.40
2022-08-30T00:49:36.263Z,17.40
2022-08-30T00:51:03.495Z,17.40
2022-08-30T00:52:25.644Z,17.40
2022-08-30T00:53:51.190Z,17.40
2022-08-30T00:55:16.181Z,17.40
2022-08-30T00:56:38.392Z,17.30
2022-08-30T00:58:05.037Z,17.40
2022-08-30T00:59:28.976Z,17.40
2022-08-30T01:00:53.966Z,17.40
2022-08-30T01:02:21.726Z,17.40
2022-08-30T01:03:44.832Z,17.40
2022-08-30T01:05:10.775Z,17.30
2022-08-30T01:06:39.859Z,17.40
2022-08-30T01:08:02.418Z,17.30
2022-08-30T01:09:24.778Z,17.30
2022-08-30T01:10:47.062Z,17.30
2022-08-30T01:12:09.421Z,17.30
2022-08-30T01:13:33.740Z,17.30
2022-08-30T01:14:57.356Z,17.30
2022-08-30T01:16:21.310Z,17.30
2022-08-30T01:17:46.875Z,17.40
2022-08-30T01:19:36.011Z,17.40
2022-08-30T01:21:31.884Z,17.40
2022-08-30T01:23:06.240Z,17.30
2022-08-30T01:24:29.057Z,17.30
2022-08-30T01:25:52.691Z,17.20
2022-08-30T01:27:16.374Z,17.00
2022-08-30T01:28:39.796Z,16.80
2022-08-30T01:30:03.177Z,16.70
2022-08-30T01:31:25.684Z,16.60
2022-08-30T01:32:48.182Z,16.50
2022-08-30T01:34:10.464Z,16.40
2022-08-30T01:35:46.295Z,16.40
2022-08-30T01:37:08.345Z,16.30
2022-08-30T01:38:38.422Z,16.30
2022-08-30T01:40:00.803Z,16.30
2022-08-30T01:41:26.853Z,16.20
2022-08-30T01:42:50.072Z,16.20
2022-08-30T01:44:13.552Z,16.20
2022-08-30T01:45:35.771Z,16.20
2022-08-30T01:46:57.825Z,16.20
2022-08-30T01:48:22.125Z,16.20
2022-08-30T01:49:53.181Z,16.20
2022-08-30T01:51:16.103Z,16.20
2022-08-30T01:52:39.665Z,16.20
2022-08-30T01:54:01.944Z,16.20
2022-08-30T01:55:24.252Z,16.20
2022-08-30T01:56:46.705Z,16.20
2022-08-30T01:58:09.183Z,16.20
2022-08-30T01:59:31.558Z,16.20
2022-08-30T02:00:54.987Z,16.30
2022-08-30T02:02:20.603Z,16.30
2022-08-30T02:03:44.221Z,16.30
2022-08-30T02:05:07.049Z,16.30
2022-08-30T02:06:29.372Z,16.30
2022-08-30T02:07:51.503Z,16.40
2022-08-30T02:09:13.685Z,16.40
2022-08-30T02:10:35.857Z,16.40
2022-08-30T02:11:57.985Z,16.40
2022-08-30T02:13:20.019Z,16.40
2022-08-30T02:14:42.112Z,16.40
2022-08-30T02:16:06.393Z,16.40
2022-08-30T02:17:28.515Z,16.50
2022-08-30T02:18:54.430Z,16.50
2022-08-30T02:20:16.521Z,16.50
2022-08-30T02:21:38.621Z,16.50
2022-08-30T02:23:01.484Z,16.50
2022-08-30T02:24:24.086Z,16.50
2022-08-30T02:25:46.538Z,16.40
2022-08-30T02:27:08.657Z,16.40
2022-08-30T02:28:30.829Z,16.30
2022-08-30T02:29:53.008Z,16.30
2022-08-30T02:31:15.150Z,16.30
2022-08-30T02:32:41.447Z,16.20
2022-08-30T02:34:04.429Z,16.20
2022-08-30T02:35:26.943Z,16.20
2022-08-30T02:36:49.161Z,16.10
2022-08-30T02:38:11.357Z,16.10
2022-08-30T02:39:33.420Z,16.10
2022-08-30T02:40:55.516Z,16.10
2022-08-30T02:42:17.686Z,16.10
2022-08-30T02:43:39.795Z,16.00
2022-08-30T02:45:02.308Z,16.00
2022-08-30T02:46:24.975Z,16.00
2022-08-30T02:47:47.329Z,16.00
2022-08-30T02:49:32.070Z,16.00
2022-08-30T02:50:53.014Z,16.00
2022-08-30T02:52:15.077Z,16.00
2022-08-30T02:53:37.937Z,15.90
2022-08-30T02:55:00.087Z,15.90
2022-08-30T02:56:22.227Z,15.90
2022-08-30T02:57:44.884Z,15.90
2022-08-30T02:59:06.897Z,15.90
2022-08-30T03:00:28.960Z,15.90
2022-08-30T03:01:51.054Z,15.90
2022-08-30T03:03:13.245Z,15.90
2022-08-30T03:04:35.376Z,15.90
2022-08-30T03:05:57.714Z,15.90
2022-08-30T03:07:20.255Z,15.90
2022-08-30T03:08:42.848Z,15.90
2022-08-30T03:10:05.618Z,15.90
2022-08-30T03:11:27.981Z,15.90
2022-08-30T03:12:50.055Z,15.90
2022-08-30T03:14:12.123Z,15.90
2022-08-30T03:15:36.022Z,15.90
2022-08-30T03:16:58.144Z,15.90
2022-08-30T03:18:21.726Z,15.90
2022-08-30T03:19:44.853Z,15.90
2022-08-30T03:21:11.822Z,15.90
2022-08-30T03:22:34.190Z,15.90
2022-08-30T03:23:56.251Z,15.90
2022-08-30T03:25:20.515Z,15.80
2022-08-30T03:26:46.278Z,15.90
2022-08-30T03:28:08.804Z,15.90
2022-08-30T03:29:30.858Z,15.90
2022-08-30T03:30:52.914Z,15.90
2022-08-30T03:32:15.133Z,15.90
2022-08-30T03:33:40.332Z,15.90
2022-08-30T03:35:02.542Z,15.90
2022-08-30T03:36:24.628Z,15.90
2022-08-30T03:37:47.237Z,15.90
2022-08-30T03:39:10.146Z,16.00
2022-08-30T03:40:36.330Z,16.00
2022-08-30T03:41:58.556Z,16.00
2022-08-30T03:43:21.252Z,16.00
2022-08-30T03:44:43.262Z,16.00
2022-08-30T03:46:05.685Z,16.00
2022-08-30T03:47:28.313Z,16.00
2022-08-30T03:48:52.160Z,16.10
2022-08-30T03:50:15.748Z,16.10
2022-08-30T03:51:37.868Z,16.10
2022-08-30T03:53:01.388Z,16.10
2022-08-30T03:54:24.753Z,16.10
2022-08-30T03:55:47.059Z,16.10
2022-08-30T03:57:13.411Z,16.10
2022-08-30T03:58:42.631Z,16.10
2022-08-30T04:00:07.163Z,16.10
2022-08-30T04:01:29.319Z,16.10
2022-08-30T04:02:51.437Z,16.10
2022-08-30T04:04:20.006Z,16.10
2022-08-30T04:05:42.899Z,16.10
2022-08-30T04:07:05.286Z,16.10
2022-08-30T04:08:27.626Z,16.10
2022-08-30T04:09:49.720Z,16.10
2022-08-30T04:11:12.399Z,16.10
2022-08-30T04:12:34.616Z,16.10
2022-08-30T04:13:56.844Z,16.10
2022-08-30T04:15:19.629Z,16.20
2022-08-30T04:16:41.918Z,16.20
2022-08-30T04:18:04.190Z,16.20
2022-08-30T04:19:26.288Z,16.20
2022-08-30T04:20:48.459Z,16.20
2022-08-30T04:22:10.744Z,16.10
2022-08-30T04:23:32.884Z,16.10
2022-08-30T04:24:55.078Z,16.10
2022-08-30T04:26:17.111Z,16.10
2022-08-30T04:27:39.226Z,16.10
2022-08-30T04:29:01.324Z,16.10
2022-08-30T04:30:23.510Z,16.10
2022-08-30T04:31:46.344Z,16.10
2022-08-30T04:33:08.740Z,16.10
2022-08-30T04:34:30.947Z,16.10
2022-08-30T04:35:53.027Z,16.10
2022-08-30T04:37:16.695Z,16.10
2022-08-30T04:38:41.166Z,16.10
2022-08-30T04:40:03.689Z,16.20
2022-08-30T04:41:25.823Z,16.10
2022-08-30T04:42:47.883Z,16.20
2022-08-30T04:44:10.920Z,16.20
2022-08-30T04:45:40.783Z,16.20
2022-08-30T04:47:02.923Z,16.20
2022-08-30T04:48:24.970Z,16.30
2022-08-30T04:49:47.196Z,16.30
2022-08-30T04:51:11.792Z,16.30
2022-08-30T04:52:33.906Z,16.30
2022-08-30T04:53:56.072Z,16.40
2022-08-30T04:55:20.418Z,16.40
2022-08-30T04:56:43.714Z,16.40
2022-08-30T04:58:06.193Z,16.50
2022-08-30T04:59:28.793Z,16.50
2022-08-30T05:00:50.958Z,16.50
2022-08-30T05:02:14.842Z,16.60
2022-08-30T05:03:37.739Z,16.60
2022-08-30T05:05:18.622Z,16.60
2022-08-30T05:06:40.847Z,16.60
2022-08-30T05:08:03.469Z,16.70
2022-08-30T05:09:25.570Z,16.70
2022-08-30T05:10:51.308Z,16.70
2022-08-30T05:12:13.455Z,16.70
2022-08-30T05:13:36.976Z,16.70
2022-08-30T05:14:59.309Z,16.70
2022-08-30T05:16:21.642Z,16.70
2022-08-30T05:17:43.821Z,16.70
2022-08-30T05:19:07.306Z,16.70
2022-08-30T05:20:29.464Z,16.60
2022-08-30T05:21:51.514Z,16.60
2022-08-30T05:23:13.743Z,16.60
2022-08-30T05:24:36.650Z,16.60
2022-08-30T05:25:58.715Z,16.60
2022-08-30T05:27:20.733Z,16.60
2022-08-30T05:28:43.983Z,16.60
2022-08-30T05:30:06.955Z,16.60
2022-08-30T05:31:32.441Z,16.70
2022-08-30T05:32:54.953Z,16.70
2022-08-30T05:34:17.462Z,16.70
2022-08-30T05:35:40.812Z,16.70
2022-08-30T05:37:03.033Z,16.80
2022-08-30T05:38:25.174Z,16.80
2022-08-30T05:39:51.120Z,16.80
2022-08-30T05:41:14.245Z,16.80
2022-08-30T05:42:37.008Z,16.90
2022-08-30T05:44:00.899Z,16.90
2022-08-30T05:45:22.937Z,16.90
2022-08-30T05:46:46.313Z,17.00
2022-08-30T05:48:08.417Z,17.00
2022-08-30T05:49:30.477Z,17.00
2022-08-30T05:51:11.397Z,17.00
2022-08-30T05:52:42.109Z,17.10
2022-08-30T05:54:06.141Z,17.10
2022-08-30T05:55:28.189Z,17.10
2022-08-30T05:56:50.356Z,17.20
2022-08-30T05:58:12.399Z,17.30
2022-08-30T05:59:34.647Z,17.30
2022-08-30T06:00:56.731Z,17.40
2022-08-30T06:02:18.795Z,17.40
2022-08-30T06:03:41.078Z,17.50
2022-08-30T06:05:05.132Z,17.50
2022-08-30T06:06:29.430Z,17.60
2022-08-30T06:07:51.467Z,17.60
2022-08-30T06:09:15.759Z,17.70
2022-08-30T06:10:37.830Z,17.80
2022-08-30T06:11:59.901Z,17.80
2022-08-30T06:13:22.401Z,17.80
2022-08-30T06:14:44.571Z,17.90
2022-08-30T06:16:06.931Z,17.90
2022-08-30T06:17:29.038Z,17.90
2022-08-30T06:18:52.064Z,17.90
2022-08-30T06:20:14.422Z,17.90
2022-08-30T06:21:37.936Z,18.00
2022-08-30T06:23:00.232Z,18.00
2022-08-30T06:24:31.297Z,18.00
2022-08-30T06:26:08.081Z,18.10
2022-08-30T06:27:31.172Z,18.30
2022-08-30T06:28:53.427Z,18.40
2022-08-30T06:30:15.856Z,18.60
2022-08-30T06:31:41.519Z,18.70
2022-08-30T06:33:03.890Z,18.80
2022-08-30T06:34:27.114Z,19.00
2022-08-30T06:35:58.682Z,19.00
2022-08-30T06:37:29.663Z,19.00
2022-08-30T06:38:54.211Z,19.00
2022-08-30T06:40:18.279Z,19.10
2022-08-30T06:41:41.526Z,19.10
2022-08-30T06:43:03.578Z,19.10
2022-08-30T06:44:25.831Z,19.00
2022-08-30T06:45:47.902Z,19.00
2022-08-30T06:47:09.982Z,19.00
2022-08-30T06:48:32.214Z,19.00
2022-08-30T06:49:54.326Z,19.10
2022-08-30T06:51:26.662Z,19.10
2022-08-30T06:52:48.748Z,19.10
2022-08-30T06:54:12.002Z,19.10
2022-08-30T06:55:34.850Z,19.10
2022-08-30T06:56:58.700Z,19.00
2022-08-30T06:58:21.230Z,19.00
2022-08-30T06:59:43.349Z,19.00
2022-08-30T07:01:06.826Z,19.00
2022-08-30T07:02:29.103Z,18.90
2022-08-30T07:03:51.794Z,18.90
2022-08-30T07:05:18.139Z,19.00
2022-08-30T07:06:40.796Z,19.00
2022-08-30T07:08:03.089Z,19.00
2022-08-30T07:09:25.624Z,19.00
2022-08-30T07:10:47.653Z,19.10
2022-08-30T07:12:11.499Z,19.10
2022-08-30T07:13:35.294Z,19.20
2022-08-30T07:14:57.457Z,19.20
2022-08-30T07:16:19.594Z,19.30
2022-08-30T07:18:00.678Z,19.30
2022-08-30T07:19:23.070Z,19.30
2022-08-30T07:20:45.276Z,19.40
2022-08-30T07:22:07.308Z,19.40
2022-08-30T07:23:29.346Z,19.50
2022-08-30T07:24:51.534Z,19.60
2022-08-30T07:26:16.973Z,19.70
2022-08-30T07:27:39.092Z,19.80
2022-08-30T07:29:02.284Z,20.00
2022-08-30T07:30:24.442Z,20.20
2022-08-30T07:31:46.591Z,20.50
2022-08-30T07:33:09.197Z,20.70
2022-08-30T07:34:31.287Z,20.80
2022-08-30T07:35:53.451Z,20.80
2022-08-30T07:37:18.168Z,20.90
2022-08-30T07:38:40.521Z,21.00
2022-08-30T07:40:04.355Z,21.10
2022-08-30T07:41:30.022Z,21.10
2022-08-30T07:42:52.303Z,21.20
2022-08-30T07:44:14.862Z,21.20
2022-08-30T07:45:38.430Z,21.20
2022-08-30T07:47:00.442Z,21.20
2022-08-30T07:48:22.488Z,21.10
2022-08-30T07:49:44.553Z,21.10
2022-08-30T07:51:14.487Z,21.10
2022-08-30T07:53:58.996Z,21.00
2022-08-30T07:55:21.230Z,21.10
2022-08-30T07:56:43.251Z,21.10
2022-08-30T07:58:06.090Z,21.20
2022-08-30T07:59:28.801Z,21.20
2022-08-30T08:00:52.070Z,21.10
2022-08-30T08:02:14.214Z,21.10
2022-08-30T08:03:36.715Z,21.10
2022-08-30T08:04:58.797Z,21.10
2022-08-30T08:06:23.291Z,21.10
2022-08-30T08:07:45.737Z,21.10
2022-08-30T08:09:08.963Z,21.00
2022-08-30T08:10:31.679Z,20.90
2022-08-30T08:13:12.442Z,21.00
2022-08-30T08:14:35.448Z,21.10
2022-08-30T08:15:57.891Z,21.10
2022-08-30T08:17:20.065Z,21.00
2022-08-30T08:18:42.166Z,20.90
2022-08-30T08:20:04.779Z,21.00
2022-08-30T08:21:27.675Z,21.00
2022-08-30T08:22:49.824Z,21.00
2022-08-30T08:24:12.097Z,21.00
2022-08-30T08:25:38.917Z,21.00
2022-08-30T08:27:00.971Z,21.00
2022-08-30T08:28:23.726Z,20.90
2022-08-30T08:29:45.823Z,20.90
2022-08-30T08:31:33.365Z,20.90
2022-08-30T08:32:57.059Z,21.00
2022-08-30T08:34:23.177Z,21.00
2022-08-30T08:35:46.131Z,20.90
2022-08-30T08:37:08.247Z,20.70
2022-08-30T08:38:30.658Z,20.70
2022-08-30T08:39:52.748Z,20.80
2022-08-30T08:41:45.089Z,21.00
2022-08-30T08:43:16.077Z,21.10
2022-08-30T08:44:51.034Z,21.20
2022-08-30T08:46:39.609Z,21.10
2022-08-30T08:48:58.441Z,21.00
2022-08-30T08:50:23.067Z,21.10
2022-08-30T08:52:04.183Z,21.10
2022-08-30T08:53:46.094Z,21.00
2022-08-30T08:55:13.536Z,21.10
2022-08-30T08:56:36.607Z,21.20
2022-08-30T08:57:58.887Z,21.30
2022-08-30T08:59:21.191Z,21.40
2022-08-30T09:00:43.604Z,21.50
2022-08-30T09:02:29.580Z,21.60
2022-08-30T09:03:52.258Z,21.60
2022-08-30T09:05:23.232Z,21.60
2022-08-30T09:06:56.933Z,21.50
2022-08-30T09:08:20.712Z,21.40
2022-08-30T09:09:43.404Z,21.50
2022-08-30T09:11:11.178Z,21.50
2022-08-30T09:12:33.504Z,21.50
2022-08-30T09:13:56.045Z,21.70
2022-08-30T09:15:24.597Z,21.70
2022-08-30T09:16:50.019Z,21.80
2022-08-30T09:18:19.181Z,21.80
2022-08-30T09:19:56.744Z,21.80
2022-08-30T09:21:24.845Z,21.90
2022-08-30T09:22:47.009Z,21.80
2022-08-30T09:24:15.574Z,21.70
2022-08-30T09:25:59.311Z,21.60
2022-08-30T09:27:30.381Z,21.40
2022-08-30T09:28:53.644Z,21.20
2022-08-30T09:30:18.191Z,21.10
2022-08-30T09:32:05.650Z,21.10
2022-08-30T09:33:37.165Z,21.10
2022-08-30T09:34:59.693Z,21.10
2022-08-30T09:36:33.864Z,21.30
2022-08-30T09:38:04.238Z,21.50
2022-08-30T09:39:33.418Z,21.70
2022-08-30T09:41:00.866Z,21.70
2022-08-30T09:42:26.178Z,21.60
2022-08-30T09:44:30.461Z,21.50
2022-08-30T09:46:01.718Z,21.50
2022-08-30T09:47:29.657Z,21.90
2022-08-30T09:48:53.681Z,22.10
2022-08-30T09:50:19.862Z,22.30
2022-08-30T09:52:02.517Z,22.40
2022-08-30T09:53:35.841Z,22.40
2022-08-30T09:54:57.842Z,22.40
2022-08-30T09:56:25.779Z,22.40
2022-08-30T09:58:20.869Z,22.30
2022-08-30T10:00:02.088Z,22.20
2022-08-30T10:01:32.764Z,21.90
2022-08-30T10:03:08.073Z,21.80
2022-08-30T10:04:58.705Z,21.80
2022-08-30T10:06:42.667Z,21.90
2022-08-30T10:08:32.615Z,22.00
2022-08-30T10:10:16.896Z,22.30
2022-08-30T10:11:50.988Z,22.50
2022-08-30T10:13:19.051Z,22.70
2022-08-30T10:15:04.599Z,22.70
2022-08-30T10:16:38.309Z,22.40
2022-08-30T10:18:23.584Z,22.20
2022-08-30T10:19:57.337Z,22.10
2022-08-30T10:21:29.229Z,21.90
2022-08-30T10:23:00.853Z,21.80
2022-08-30T10:24:33.209Z,21.70
2022-08-30T10:26:07.104Z,21.50
2022-08-30T10:27:34.873Z,21.50
2022-08-30T10:29:25.408Z,21.50
2022-08-30T10:30:56.061Z,21.70
2022-08-30T10:32:46.449Z,21.90
2022-08-30T10:34:24.722Z,22.10
2022-08-30T10:35:52.497Z,22.40
2022-08-30T10:37:21.872Z,22.60
2022-08-30T10:38:49.564Z,22.70
2022-08-30T10:41:02.854Z,22.90
2022-08-30T10:42:28.880Z,23.10
2022-08-30T10:44:06.580Z,23.40
2022-08-30T10:45:32.970Z,23.30
2022-08-30T10:47:10.135Z,23.20
2022-08-30T10:48:40.246Z,23.00
2022-08-30T10:50:34.910Z,22.90
2022-08-30T10:52:08.772Z,23.10
2022-08-30T10:54:09.357Z,23.30
2022-08-30T10:55:37.554Z,23.50
2022-08-30T10:57:00.249Z,23.50
2022-08-30T10:58:23.517Z,23.30
2022-08-30T10:59:56.890Z,23.10
2022-08-30T11:01:18.984Z,22.80
2022-08-30T11:03:19.855Z,22.80
2022-08-30T11:04:56.922Z,22.90
2022-08-30T11:06:43.392Z,22.90
2022-08-30T11:08:31.953Z,22.80
2022-08-30T11:10:25.618Z,22.70
2022-08-30T11:12:24.061Z,22.80
2022-08-30T11:13:47.759Z,22.90
2022-08-30T11:15:34.448Z,23.00
2022-08-30T11:17:00.508Z,23.20
2022-08-30T11:18:25.013Z,23.30
2022-08-30T11:19:47.324Z,23.40
2022-08-30T11:21:26.151Z,23.30
2022-08-30T11:23:06.984Z,23.50
2022-08-30T11:24:29.186Z,23.70
2022-08-30T11:25:58.018Z,23.80
2022-08-30T11:27:59.267Z,23.80
2022-08-30T11:29:35.170Z,23.70
2022-08-30T11:31:07.290Z,23.20
2022-08-30T11:32:58.640Z,22.80
2022-08-30T11:34:45.636Z,22.40
2022-08-30T11:36:09.714Z,22.00
2022-08-30T11:37:44.700Z,21.80
2022-08-30T11:39:09.913Z,21.80
2022-08-30T11:40:34.950Z,21.70
2022-08-30T11:42:24.424Z,21.60
2022-08-30T11:43:55.577Z,21.50
2022-08-30T11:45:25.515Z,21.40
2022-08-30T11:46:55.006Z,21.20
2022-08-30T11:49:13.011Z,21.00
2022-08-30T11:50:55.229Z,20.80
2022-08-30T11:52:27.594Z,20.80
2022-08-30T11:54:07.212Z,21.00
2022-08-30T11:55:45.199Z,21.40
2022-08-30T11:57:27.050Z,21.70
2022-08-30T11:59:01.878Z,21.90
2022-08-30T12:00:39.698Z,22.00
2022-08-30T12:02:03.132Z,22.10
2022-08-30T12:03:33.461Z,22.20
2022-08-30T12:04:57.855Z,22.20
2022-08-30T12:06:51.376Z,22.30
2022-08-30T12:08:28.546Z,22.30
2022-08-30T12:09:50.940Z,22.30
2022-08-30T12:11:13.388Z,22.50
2022-08-30T12:12:39.315Z,22.50
2022-08-30T12:14:03.375Z,22.50
2022-08-30T12:15:54.925Z,22.40
2022-08-30T12:17:50.774Z,22.40
2022-08-30T12:19:19.720Z,22.50
2022-08-30T12:20:47.262Z,22.80
2022-08-30T12:22:17.576Z,22.90
2022-08-30T12:23:48.389Z,22.90
2022-08-30T12:25:26.053Z,23.00
2022-08-30T12:26:51.323Z,23.10
2022-08-30T12:28:13.536Z,23.00
2022-08-30T12:29:35.698Z,22.90
2022-08-30T12:31:09.823Z,22.90
2022-08-30T12:32:33.212Z,22.90
2022-08-30T12:34:00.589Z,22.80
2022-08-30T12:35:28.305Z,22.70
2022-08-30T12:37:03.023Z,22.60
2022-08-30T12:38:28.387Z,22.60
2022-08-30T12:40:00.735Z,22.90
2022-08-30T12:41:24.194Z,23.00
2022-08-30T12:42:53.907Z,23.10
2022-08-30T12:44:23.265Z,23.00
2022-08-30T12:45:50.658Z,22.90
2022-08-30T12:47:18.210Z,22.90
2022-08-30T12:48:41.434Z,22.80
2022-08-30T12:50:05.446Z,22.90
2022-08-30T12:51:34.105Z,22.90
2022-08-30T12:53:05.024Z,23.10
2022-08-30T12:54:30.623Z,23.10
2022-08-30T12:56:00.560Z,22.80
2022-08-30T12:57:41.845Z,22.50
2022-08-30T12:59:03.912Z,22.30
2022-08-30T13:00:34.267Z,22.30
2022-08-30T13:02:26.608Z,22.30
2022-08-30T13:04:26.874Z,22.40
2022-08-30T13:05:50.498Z,22.40
2022-08-30T13:07:30.863Z,22.20
2022-08-30T13:08:55.578Z,22.00
2022-08-30T13:10:20.819Z,21.90
2022-08-30T13:11:49.059Z,22.00
2022-08-30T13:13:11.296Z,22.20
2022-08-30T13:14:43.960Z,22.30
2022-08-30T13:16:12.191Z,22.40
2022-08-30T13:17:34.886Z,22.30
2022-08-30T13:19:19.831Z,22.20
2022-08-30T13:20:41.964Z,22.00
2022-08-30T13:22:05.125Z,22.10
2022-08-30T13:23:27.224Z,22.20
2022-08-30T13:24:51.899Z,22.00
2022-08-30T13:26:14.022Z,21.90
2022-08-30T13:27:42.505Z,21.70
2022-08-30T13:29:10.264Z,21.60
2022-08-30T13:30:33.234Z,21.50
2022-08-30T13:31:56.301Z,21.50
2022-08-30T13:33:18.997Z,21.60
2022-08-30T13:34:41.801Z,21.80
2022-08-30T13:36:05.987Z,21.90
2022-08-30T13:39:11.531Z,22.00
2022-08-30T13:40:34.081Z,21.80
2022-08-30T13:42:31.271Z,21.60
2022-08-30T13:48:46.797Z,21.60
2022-08-30T13:50:09.141Z,21.40
2022-08-30T13:51:31.952Z,21.40
2022-08-30T13:52:54.354Z,21.30
2022-08-30T13:54:16.694Z,21.30
2022-08-30T13:55:41.395Z,21.40
2022-08-30T13:57:03.921Z,21.30
2022-08-30T13:58:26.181Z,21.10
2022-08-30T13:59:51.035Z,21.10
2022-08-30T14:01:13.236Z,21.10
2022-08-30T14:02:42.885Z,21.00
2022-08-30T14:04:16.634Z,21.00
2022-08-30T14:05:50.709Z,21.00
2022-08-30T14:07:20.475Z,21.00
2022-08-30T14:08:45.322Z,20.90
2022-08-30T14:11:50.996Z,20.70
2022-08-30T14:13:13.544Z,20.60
2022-08-30T14:14:42.506Z,20.60
2022-08-30T14:17:49.999Z,20.90
2022-08-30T14:19:14.700Z,21.00
2022-08-30T14:20:38.387Z,21.10
2022-08-30T14:22:01.132Z,21.10
2022-08-30T14:23:23.562Z,21.00
2022-08-30T14:24:45.672Z,21.00
2022-08-30T14:26:22.802Z,20.90
2022-08-30T14:27:44.863Z,20.70
2022-08-30T14:29:09.591Z,20.60
2022-08-30T14:30:32.146Z,20.60
2022-08-30T14:31:56.470Z,20.50
2022-08-30T14:33:21.899Z,20.50
2022-08-30T14:34:44.010Z,20.40
2022-08-30T14:36:15.533Z,20.20
2022-08-30T14:37:38.108Z,20.20
2022-08-30T14:39:01.986Z,20.10
2022-08-30T14:40:24.140Z,20.10
2022-08-30T14:41:49.373Z,20.10
2022-08-30T14:43:11.576Z,20.10
2022-08-30T14:44:54.787Z,20.20
2022-08-30T14:46:16.488Z,20.20
2022-08-30T14:47:38.766Z,20.30
2022-08-30T14:49:00.792Z,20.30
2022-08-30T14:50:22.951Z,20.40
2022-08-30T14:51:48.525Z,20.50
2022-08-30T14:53:10.717Z,20.50
2022-08-30T14:54:34.687Z,20.60
2022-08-30T14:55:56.798Z,20.60
2022-08-30T14:57:18.886Z,20.70
2022-08-30T14:58:40.948Z,20.70
2022-08-30T15:00:05.255Z,20.80
2022-08-30T15:01:28.524Z,20.90
2022-08-30T15:02:51.166Z,20.90
2022-08-30T15:04:14.734Z,21.00
2022-08-30T15:05:36.836Z,20.90
2022-08-30T15:06:58.968Z,20.90
2022-08-30T15:08:21.064Z,20.90
2022-08-30T15:09:44.730Z,20.90
2022-08-30T15:11:13.929Z,20.80
2022-08-30T15:12:36.223Z,20.70
2022-08-30T15:13:58.376Z,20.70
2022-08-30T15:15:21.462Z,20.70
2022-08-30T15:16:44.281Z,20.80
2022-08-30T15:18:06.627Z,20.80
2022-08-30T15:19:29.625Z,20.80
2022-08-30T15:20:51.716Z,20.90
2022-08-30T15:22:13.796Z,20.90
2022-08-30T15:23:38.056Z,21.00
2022-08-30T15:25:02.880Z,21.10
2022-08-30T15:26:25.541Z,20.90
2022-08-30T15:27:49.244Z,20.90
2022-08-30T15:29:13.548Z,20.90
2022-08-30T15:30:36.061Z,20.90
2022-08-30T15:31:59.294Z,20.80
2022-08-30T15:33:23.045Z,20.70
2022-08-30T15:34:45.189Z,20.60
2022-08-30T15:36:18.020Z,20.50
2022-08-30T15:37:40.343Z,20.50
2022-08-30T15:39:02.536Z,20.50
2022-08-30T15:40:24.718Z,20.50
2022-08-30T15:41:54.754Z,20.50
2022-08-30T15:43:19.564Z,20.50
2022-08-30T15:44:42.099Z,20.50
2022-08-30T15:46:23.687Z,20.50
2022-08-30T15:47:51.912Z,20.50
2022-08-30T15:49:18.161Z,20.50
2022-08-30T15:50:40.428Z,20.40
2022-08-30T15:52:04.858Z,20.30
2022-08-30T15:53:27.653Z,20.30
2022-08-30T15:54:49.920Z,20.20
2022-08-30T15:56:12.127Z,20.20
2022-08-30T15:57:34.619Z,20.30
2022-08-30T15:58:57.354Z,20.20
2022-08-30T16:00:19.545Z,20.20
2022-08-30T16:01:42.951Z,20.10
2022-08-30T16:03:05.893Z,20.10
2022-08-30T16:04:28.176Z,20.00
2022-08-30T16:05:50.314Z,20.00
2022-08-30T16:07:12.895Z,20.00
2022-08-30T16:08:35.046Z,20.00
2022-08-30T16:09:57.136Z,20.00
2022-08-30T16:11:22.664Z,19.90
2022-08-30T16:12:44.880Z,19.90
2022-08-30T16:14:07.992Z,19.90
2022-08-30T16:15:30.248Z,19.90
2022-08-30T16:16:52.281Z,19.90
2022-08-30T16:18:14.728Z,19.90
2022-08-30T16:19:37.581Z,20.00
2022-08-30T16:21:14.757Z,20.00
2022-08-30T16:22:36.917Z,20.00
2022-08-30T16:24:01.573Z,20.00
2022-08-30T16:25:23.890Z,20.00
2022-08-30T16:26:46.413Z,20.00
2022-08-30T16:28:09.451Z,20.10
2022-08-30T16:29:31.776Z,20.10
2022-08-30T16:30:55.971Z,20.10
2022-08-30T16:32:18.624Z,20.10
2022-08-30T16:33:43.926Z,20.00
2022-08-30T16:35:07.674Z,20.00
2022-08-30T16:36:30.007Z,20.00
2022-08-30T16:37:52.159Z,20.00
2022-08-30T16:39:14.317Z,20.00
2022-08-30T16:40:37.297Z,19.90
2022-08-30T16:42:03.053Z,19.80
2022-08-30T16:43:25.474Z,19.70
2022-08-30T16:44:48.336Z,19.70
2022-08-30T16:46:14.757Z,19.70
2022-08-30T16:47:36.883Z,19.70
2022-08-30T16:49:02.181Z,19.70
2022-08-30T16:50:24.272Z,19.60
2022-08-30T16:51:46.354Z,19.60
2022-08-30T16:53:09.335Z,19.50
2022-08-30T16:54:32.595Z,19.50
2022-08-30T16:55:54.830Z,19.50
2022-08-30T16:57:16.829Z,19.40
2022-08-30T16:58:39.153Z,19.40
2022-08-30T17:00:01.546Z,19.40
2022-08-30T17:01:26.321Z,19.30
2022-08-30T17:02:53.616Z,19.40
2022-08-30T17:04:18.870Z,19.30
2022-08-30T17:05:43.231Z,19.20
2022-08-30T17:07:07.023Z,19.20
2022-08-30T17:08:36.096Z,19.10
2022-08-30T17:09:58.227Z,19.10
2022-08-30T17:11:20.393Z,19.00
2022-08-30T17:12:45.509Z,18.90
2022-08-30T17:14:08.704Z,18.90
2022-08-30T17:15:32.135Z,18.80
2022-08-30T17:16:57.898Z,18.80
2022-08-30T17:18:20.385Z,18.70
2022-08-30T17:19:42.968Z,18.70
2022-08-30T17:21:05.655Z,18.70
2022-08-30T17:22:29.753Z,18.70
2022-08-30T17:23:51.858Z,18.70
2022-08-30T17:25:14.209Z,18.70
2022-08-30T17:26:38.302Z,18.70
2022-08-30T17:28:00.603Z,18.60
2022-08-30T17:29:22.708Z,18.60
2022-08-30T17:30:44.768Z,18.60
2022-08-30T17:32:07.497Z,18.50
2022-08-30T17:33:30.974Z,18.50
2022-08-30T17:34:53.067Z,18.50
2022-08-30T17:36:15.149Z,18.40
2022-08-30T17:37:37.325Z,18.40
2022-08-30T17:38:59.439Z,18.40
2022-08-30T17:40:21.595Z,18.40
2022-08-30T17:41:49.125Z,18.30
2022-08-30T17:43:12.958Z,18.30
2022-08-30T17:44:37.915Z,18.30
2022-08-30T17:46:19.450Z,18.30
2022-08-30T17:47:41.746Z,18.30
2022-08-30T17:49:04.137Z,18.30
2022-08-30T17:50:26.225Z,18.30
2022-08-30T17:51:56.094Z,18.30
2022-08-30T17:53:18.807Z,18.30
2022-08-30T17:54:43.209Z,18.30
2022-08-30T17:56:05.672Z,18.20
2022-08-30T17:57:29.579Z,18.20
2022-08-30T17:58:51.861Z,18.20
2022-08-30T18:00:15.876Z,18.20
2022-08-30T18:01:39.526Z,18.20
2022-08-30T18:03:01.995Z,18.10
2022-08-30T18:04:25.178Z,18.10
2022-08-30T18:05:47.481Z,18.10
2022-08-30T18:07:11.793Z,18.10
2022-08-30T18:08:35.762Z,18.00
2022-08-30T18:09:58.085Z,18.00
2022-08-30T18:11:21.736Z,18.00
2022-08-30T18:12:43.857Z,17.90
2022-08-30T18:14:10.925Z,17.90
2022-08-30T18:15:33.419Z,17.90
2022-08-30T18:16:55.477Z,17.80
2022-08-30T18:18:17.780Z,17.80
2022-08-30T18:19:46.006Z,17.70
2022-08-30T18:21:17.993Z,17.60
2022-08-30T18:22:44.198Z,17.60
2022-08-30T18:24:06.833Z,17.50
2022-08-30T18:25:30.097Z,17.50
2022-08-30T18:26:54.750Z,17.40
2022-08-30T18:28:17.092Z,17.40
2022-08-30T18:29:39.474Z,17.30
2022-08-30T18:31:01.525Z,17.30
2022-08-30T18:32:23.596Z,17.20
2022-08-30T18:33:55.228Z,17.20
2022-08-30T18:35:17.379Z,17.10
2022-08-30T18:36:39.979Z,17.10
2022-08-30T18:38:03.820Z,17.00
2022-08-30T18:39:26.476Z,17.00
2022-08-30T18:40:49.447Z,16.90
2022-08-30T18:42:11.675Z,16.90
2022-08-30T18:43:34.900Z,16.90